sensor_id;sensor_type;location;lat;lon;timestamp;P1;durP1;ratioP1;P2;durP2;ratioP2
66264;SDS011;53055;44.648;21.148;2023-04-24T00:01:48;10.23;;;5.75;;
66264;SDS011;53055;44.648;21.148;2023-04-24T00:04:15;10.18;;;5.78;;
66264;SDS011;53055;44.648;21.148;2023-04-24T00:06:42;9.48;;;5.85;;
66264;SDS011;53055;44.648;21.148;2023-04-24T00:09:08;12.48;;;6.00;;
66264;SDS011;53055;44.648;21.148;2023-04-24T00:11:37;9.30;;;5.85;;
66264;SDS011;53055;44.648;21.148;2023-04-24T00:14:03;10.38;;;5.25;;
66264;SDS011;53055;44.648;21.148;2023-04-24T00:16:29;12.02;;;5.40;;
66264;SDS011;53055;44.648;21.148;2023-04-24T00:18:55;10.13;;;5.13;;
66264;SDS011;53055;44.648;21.148;2023-04-24T00:21:21;10.32;;;5.32;;
66264;SDS011;53055;44.648;21.148;2023-04-24T00:23:50;14.23;;;5.35;;
66264;SDS011;53055;44.648;21.148;2023-04-24T00:26:16;7.43;;;4.63;;
66264;SDS011;53055;44.648;21.148;2023-04-24T00:28:42;13.27;;;5.55;;
66264;SDS011;53055;44.648;21.148;2023-04-24T00:31:08;9.88;;;5.00;;
66264;SDS011;53055;44.648;21.148;2023-04-24T00:33:34;9.98;;;5.35;;
66264;SDS011;53055;44.648;21.148;2023-04-24T00:36:00;9.93;;;5.15;;
66264;SDS011;53055;44.648;21.148;2023-04-24T00:38:26;8.35;;;5.50;;
66264;SDS011;53055;44.648;21.148;2023-04-24T00:40:52;9.20;;;5.30;;
66264;SDS011;53055;44.648;21.148;2023-04-24T00:43:19;9.55;;;5.78;;
66264;SDS011;53055;44.648;21.148;2023-04-24T00:45:45;9.75;;;5.22;;
66264;SDS011;53055;44.648;21.148;2023-04-24T00:48:12;9.57;;;5.90;;
66264;SDS011;53055;44.648;21.148;2023-04-24T00:50:38;9.40;;;5.05;;
66264;SDS011;53055;44.648;21.148;2023-04-24T00:53:04;9.20;;;5.32;;
66264;SDS011;53055;44.648;21.148;2023-04-24T00:55:31;8.68;;;4.97;;
66264;SDS011;53055;44.648;21.148;2023-04-24T00:57:57;9.90;;;5.32;;
66264;SDS011;53055;44.648;21.148;2023-04-24T01:00:24;9.48;;;5.80;;
66264;SDS011;53055;44.648;21.148;2023-04-24T01:02:50;10.32;;;5.10;;
66264;SDS011;53055;44.648;21.148;2023-04-24T01:05:18;8.80;;;4.93;;
66264;SDS011;53055;44.648;21.148;2023-04-24T01:07:45;9.98;;;5.63;;
66264;SDS011;53055;44.648;21.148;2023-04-24T01:10:13;9.07;;;5.15;;
66264;SDS011;53055;44.648;21.148;2023-04-24T01:12:39;11.20;;;5.72;;
66264;SDS011;53055;44.648;21.148;2023-04-24T01:15:06;10.23;;;5.80;;
66264;SDS011;53055;44.648;21.148;2023-04-24T01:17:32;8.85;;;5.10;;
66264;SDS011;53055;44.648;21.148;2023-04-24T01:19:59;9.82;;;5.50;;
66264;SDS011;53055;44.648;21.148;2023-04-24T01:22:25;11.02;;;5.45;;
66264;SDS011;53055;44.648;21.148;2023-04-24T01:24:52;8.80;;;5.55;;
66264;SDS011;53055;44.648;21.148;2023-04-24T01:27:18;11.27;;;6.18;;
66264;SDS011;53055;44.648;21.148;2023-04-24T01:29:45;8.77;;;5.07;;
66264;SDS011;53055;44.648;21.148;2023-04-24T01:32:12;7.97;;;4.88;;
66264;SDS011;53055;44.648;21.148;2023-04-24T01:34:39;8.40;;;5.30;;
66264;SDS011;53055;44.648;21.148;2023-04-24T01:37:05;9.30;;;4.85;;
66264;SDS011;53055;44.648;21.148;2023-04-24T01:39:31;7.82;;;5.13;;
66264;SDS011;53055;44.648;21.148;2023-04-24T01:41:58;9.50;;;5.10;;
66264;SDS011;53055;44.648;21.148;2023-04-24T01:44:26;7.75;;;5.60;;
66264;SDS011;53055;44.648;21.148;2023-04-24T01:46:53;7.85;;;5.30;;
66264;SDS011;53055;44.648;21.148;2023-04-24T01:49:19;7.82;;;5.40;;
66264;SDS011;53055;44.648;21.148;2023-04-24T01:51:45;9.32;;;5.35;;
66264;SDS011;53055;44.648;21.148;2023-04-24T01:54:12;9.77;;;5.53;;
66264;SDS011;53055;44.648;21.148;2023-04-24T01:56:41;8.43;;;4.75;;
66264;SDS011;53055;44.648;21.148;2023-04-24T01:59:09;8.48;;;5.57;;
66264;SDS011;53055;44.648;21.148;2023-04-24T02:01:35;9.05;;;5.38;;
66264;SDS011;53055;44.648;21.148;2023-04-24T02:04:02;8.32;;;4.95;;
66264;SDS011;53055;44.648;21.148;2023-04-24T02:06:28;8.93;;;5.53;;
66264;SDS011;53055;44.648;21.148;2023-04-24T02:08:56;9.40;;;5.20;;
66264;SDS011;53055;44.648;21.148;2023-04-24T02:11:22;6.90;;;4.63;;
66264;SDS011;53055;44.648;21.148;2023-04-24T02:13:48;9.10;;;4.68;;
66264;SDS011;53055;44.648;21.148;2023-04-24T02:16:15;8.15;;;4.82;;
66264;SDS011;53055;44.648;21.148;2023-04-24T02:18:41;8.55;;;5.00;;
66264;SDS011;53055;44.648;21.148;2023-04-24T02:21:07;12.05;;;4.90;;
66264;SDS011;53055;44.648;21.148;2023-04-24T02:23:33;8.27;;;4.88;;
66264;SDS011;53055;44.648;21.148;2023-04-24T02:25:59;9.07;;;4.75;;
66264;SDS011;53055;44.648;21.148;2023-04-24T02:28:25;6.93;;;4.78;;
66264;SDS011;53055;44.648;21.148;2023-04-24T02:30:51;7.75;;;4.57;;
66264;SDS011;53055;44.648;21.148;2023-04-24T02:33:17;8.82;;;4.55;;
66264;SDS011;53055;44.648;21.148;2023-04-24T02:35:43;7.50;;;4.63;;
66264;SDS011;53055;44.648;21.148;2023-04-24T02:38:09;7.80;;;4.68;;
66264;SDS011;53055;44.648;21.148;2023-04-24T02:40:35;10.27;;;5.00;;
66264;SDS011;53055;44.648;21.148;2023-04-24T02:43:01;7.50;;;4.72;;
66264;SDS011;53055;44.648;21.148;2023-04-24T02:45:27;7.85;;;5.03;;
66264;SDS011;53055;44.648;21.148;2023-04-24T02:47:53;9.45;;;5.40;;
66264;SDS011;53055;44.648;21.148;2023-04-24T02:50:19;7.75;;;4.85;;
66264;SDS011;53055;44.648;21.148;2023-04-24T02:52:45;9.63;;;5.05;;
66264;SDS011;53055;44.648;21.148;2023-04-24T02:55:11;6.63;;;4.72;;
66264;SDS011;53055;44.648;21.148;2023-04-24T02:57:37;7.30;;;4.63;;
66264;SDS011;53055;44.648;21.148;2023-04-24T03:00:03;9.52;;;4.60;;
66264;SDS011;53055;44.648;21.148;2023-04-24T03:02:32;9.40;;;4.85;;
66264;SDS011;53055;44.648;21.148;2023-04-24T03:04:58;8.65;;;4.70;;
66264;SDS011;53055;44.648;21.148;2023-04-24T03:07:24;8.68;;;4.53;;
66264;SDS011;53055;44.648;21.148;2023-04-24T03:09:50;7.28;;;4.68;;
66264;SDS011;53055;44.648;21.148;2023-04-24T03:12:16;8.27;;;4.55;;
66264;SDS011;53055;44.648;21.148;2023-04-24T03:14:43;9.60;;;4.95;;
66264;SDS011;53055;44.648;21.148;2023-04-24T03:17:09;7.15;;;4.72;;
66264;SDS011;53055;44.648;21.148;2023-04-24T03:19:35;7.32;;;4.38;;
66264;SDS011;53055;44.648;21.148;2023-04-24T03:22:04;7.95;;;5.10;;
66264;SDS011;53055;44.648;21.148;2023-04-24T03:24:30;7.72;;;4.80;;
66264;SDS011;53055;44.648;21.148;2023-04-24T03:26:56;8.98;;;4.90;;
66264;SDS011;53055;44.648;21.148;2023-04-24T03:29:22;9.68;;;5.63;;
66264;SDS011;53055;44.648;21.148;2023-04-24T03:31:48;8.90;;;4.97;;
66264;SDS011;53055;44.648;21.148;2023-04-24T03:34:14;8.70;;;4.93;;
66264;SDS011;53055;44.648;21.148;2023-04-24T03:36:40;7.85;;;5.43;;
66264;SDS011;53055;44.648;21.148;2023-04-24T03:39:06;8.73;;;5.07;;
66264;SDS011;53055;44.648;21.148;2023-04-24T03:41:32;9.93;;;5.57;;
66264;SDS011;53055;44.648;21.148;2023-04-24T03:43:58;8.88;;;5.50;;
66264;SDS011;53055;44.648;21.148;2023-04-24T03:46:25;9.07;;;5.53;;
66264;SDS011;53055;44.648;21.148;2023-04-24T03:48:51;9.07;;;5.82;;
66264;SDS011;53055;44.648;21.148;2023-04-24T03:51:17;8.90;;;6.00;;
66264;SDS011;53055;44.648;21.148;2023-04-24T03:53:43;10.07;;;5.57;;
66264;SDS011;53055;44.648;21.148;2023-04-24T03:56:09;9.07;;;5.97;;
66264;SDS011;53055;44.648;21.148;2023-04-24T03:58:35;9.00;;;6.05;;
66264;SDS011;53055;44.648;21.148;2023-04-24T04:01:01;11.93;;;6.55;;
66264;SDS011;53055;44.648;21.148;2023-04-24T04:03:27;10.35;;;5.40;;
66264;SDS011;53055;44.648;21.148;2023-04-24T04:05:53;10.32;;;5.75;;
66264;SDS011;53055;44.648;21.148;2023-04-24T04:08:19;7.22;;;4.95;;
66264;SDS011;53055;44.648;21.148;2023-04-24T04:10:45;8.48;;;5.10;;
66264;SDS011;53055;44.648;21.148;2023-04-24T04:13:11;8.60;;;5.38;;
66264;SDS011;53055;44.648;21.148;2023-04-24T04:15:37;8.68;;;5.10;;
66264;SDS011;53055;44.648;21.148;2023-04-24T04:18:03;10.13;;;5.22;;
66264;SDS011;53055;44.648;21.148;2023-04-24T04:20:30;7.68;;;5.00;;
66264;SDS011;53055;44.648;21.148;2023-04-24T04:22:56;9.48;;;4.90;;
66264;SDS011;53055;44.648;21.148;2023-04-24T04:25:22;9.23;;;5.25;;
66264;SDS011;53055;44.648;21.148;2023-04-24T04:27:48;8.52;;;4.97;;
66264;SDS011;53055;44.648;21.148;2023-04-24T04:30:16;8.82;;;5.55;;
66264;SDS011;53055;44.648;21.148;2023-04-24T04:32:43;7.75;;;5.28;;
66264;SDS011;53055;44.648;21.148;2023-04-24T04:35:09;8.88;;;5.68;;
66264;SDS011;53055;44.648;21.148;2023-04-24T04:37:35;7.05;;;4.90;;
66264;SDS011;53055;44.648;21.148;2023-04-24T04:40:01;8.70;;;5.00;;
66264;SDS011;53055;44.648;21.148;2023-04-24T04:42:31;7.93;;;4.72;;
66264;SDS011;53055;44.648;21.148;2023-04-24T04:44:59;8.50;;;5.53;;
66264;SDS011;53055;44.648;21.148;2023-04-24T04:47:25;8.20;;;5.22;;
66264;SDS011;53055;44.648;21.148;2023-04-24T04:49:53;8.35;;;4.93;;
66264;SDS011;53055;44.648;21.148;2023-04-24T04:52:19;7.25;;;4.80;;
66264;SDS011;53055;44.648;21.148;2023-04-24T04:54:49;10.15;;;5.13;;
66264;SDS011;53055;44.648;21.148;2023-04-24T04:57:15;9.95;;;5.03;;
66264;SDS011;53055;44.648;21.148;2023-04-24T04:59:41;7.68;;;5.05;;
66264;SDS011;53055;44.648;21.148;2023-04-24T05:02:08;6.97;;;4.80;;
66264;SDS011;53055;44.648;21.148;2023-04-24T05:04:34;10.27;;;5.30;;
66264;SDS011;53055;44.648;21.148;2023-04-24T05:07:00;9.35;;;5.18;;
66264;SDS011;53055;44.648;21.148;2023-04-24T05:09:26;13.60;;;8.77;;
66264;SDS011;53055;44.648;21.148;2023-04-24T05:11:54;13.50;;;8.48;;
66264;SDS011;53055;44.648;21.148;2023-04-24T05:14:20;10.88;;;5.57;;
66264;SDS011;53055;44.648;21.148;2023-04-24T05:16:46;9.07;;;5.72;;
66264;SDS011;53055;44.648;21.148;2023-04-24T05:19:13;12.35;;;7.75;;
66264;SDS011;53055;44.648;21.148;2023-04-24T05:21:40;9.20;;;5.20;;
66264;SDS011;53055;44.648;21.148;2023-04-24T05:24:06;8.98;;;5.22;;
66264;SDS011;53055;44.648;21.148;2023-04-24T05:26:32;9.07;;;5.72;;
66264;SDS011;53055;44.648;21.148;2023-04-24T05:28:58;7.57;;;5.03;;
66264;SDS011;53055;44.648;21.148;2023-04-24T05:31:25;9.07;;;5.38;;
66264;SDS011;53055;44.648;21.148;2023-04-24T05:33:51;9.73;;;5.18;;
66264;SDS011;53055;44.648;21.148;2023-04-24T05:36:17;8.20;;;4.78;;
66264;SDS011;53055;44.648;21.148;2023-04-24T05:38:43;7.70;;;5.07;;
66264;SDS011;53055;44.648;21.148;2023-04-24T05:41:09;9.93;;;5.00;;
66264;SDS011;53055;44.648;21.148;2023-04-24T05:43:35;8.82;;;5.30;;
66264;SDS011;53055;44.648;21.148;2023-04-24T05:46:01;8.10;;;5.00;;
66264;SDS011;53055;44.648;21.148;2023-04-24T05:48:27;10.90;;;5.28;;
66264;SDS011;53055;44.648;21.148;2023-04-24T05:50:53;8.80;;;6.05;;
66264;SDS011;53055;44.648;21.148;2023-04-24T05:53:19;8.65;;;5.22;;
66264;SDS011;53055;44.648;21.148;2023-04-24T05:55:45;7.80;;;5.30;;
66264;SDS011;53055;44.648;21.148;2023-04-24T05:58:11;8.85;;;5.80;;
66264;SDS011;53055;44.648;21.148;2023-04-24T06:00:37;12.02;;;6.40;;
66264;SDS011;53055;44.648;21.148;2023-04-24T06:03:07;9.52;;;6.05;;
66264;SDS011;53055;44.648;21.148;2023-04-24T06:05:33;9.32;;;6.38;;
66264;SDS011;53055;44.648;21.148;2023-04-24T06:07:59;9.48;;;6.10;;
66264;SDS011;53055;44.648;21.148;2023-04-24T06:10:25;8.65;;;5.80;;
66264;SDS011;53055;44.648;21.148;2023-04-24T06:12:52;10.50;;;6.03;;
66264;SDS011;53055;44.648;21.148;2023-04-24T06:15:21;9.13;;;5.30;;
66264;SDS011;53055;44.648;21.148;2023-04-24T06:17:47;8.15;;;5.32;;
66264;SDS011;53055;44.648;21.148;2023-04-24T06:20:13;10.10;;;5.30;;
66264;SDS011;53055;44.648;21.148;2023-04-24T06:22:39;8.30;;;5.20;;
66264;SDS011;53055;44.648;21.148;2023-04-24T06:25:05;8.70;;;5.57;;
66264;SDS011;53055;44.648;21.148;2023-04-24T06:27:32;9.00;;;5.40;;
66264;SDS011;53055;44.648;21.148;2023-04-24T06:29:58;10.85;;;6.13;;
66264;SDS011;53055;44.648;21.148;2023-04-24T06:32:24;7.93;;;5.65;;
66264;SDS011;53055;44.648;21.148;2023-04-24T06:34:51;10.18;;;5.40;;
66264;SDS011;53055;44.648;21.148;2023-04-24T06:37:18;7.97;;;5.78;;
66264;SDS011;53055;44.648;21.148;2023-04-24T06:39:44;9.63;;;5.43;;
66264;SDS011;53055;44.648;21.148;2023-04-24T06:42:10;9.75;;;5.75;;
66264;SDS011;53055;44.648;21.148;2023-04-24T06:44:36;10.27;;;7.28;;
66264;SDS011;53055;44.648;21.148;2023-04-24T06:47:06;13.07;;;7.20;;
66264;SDS011;53055;44.648;21.148;2023-04-24T06:49:33;12.65;;;6.90;;
66264;SDS011;53055;44.648;21.148;2023-04-24T06:51:59;10.02;;;6.57;;
66264;SDS011;53055;44.648;21.148;2023-04-24T06:54:25;8.75;;;6.32;;
66264;SDS011;53055;44.648;21.148;2023-04-24T06:56:51;10.52;;;7.75;;
66264;SDS011;53055;44.648;21.148;2023-04-24T06:59:17;12.27;;;8.63;;
66264;SDS011;53055;44.648;21.148;2023-04-24T07:01:43;10.63;;;7.13;;
66264;SDS011;53055;44.648;21.148;2023-04-24T07:04:10;10.18;;;6.18;;
66264;SDS011;53055;44.648;21.148;2023-04-24T07:06:37;12.98;;;7.72;;
66264;SDS011;53055;44.648;21.148;2023-04-24T07:09:04;11.48;;;7.43;;
66264;SDS011;53055;44.648;21.148;2023-04-24T07:11:30;10.98;;;7.07;;
66264;SDS011;53055;44.648;21.148;2023-04-24T07:13:56;13.27;;;8.60;;
66264;SDS011;53055;44.648;21.148;2023-04-24T07:16:22;10.90;;;8.23;;
66264;SDS011;53055;44.648;21.148;2023-04-24T07:18:48;16.60;;;10.07;;
66264;SDS011;53055;44.648;21.148;2023-04-24T07:21:14;13.73;;;8.18;;
66264;SDS011;53055;44.648;21.148;2023-04-24T07:23:40;13.02;;;9.20;;
66264;SDS011;53055;44.648;21.148;2023-04-24T07:26:07;11.00;;;6.80;;
66264;SDS011;53055;44.648;21.148;2023-04-24T07:28:33;9.90;;;6.05;;
66264;SDS011;53055;44.648;21.148;2023-04-24T07:30:59;9.15;;;5.55;;
66264;SDS011;53055;44.648;21.148;2023-04-24T07:33:25;10.55;;;6.60;;
66264;SDS011;53055;44.648;21.148;2023-04-24T07:35:51;9.98;;;6.85;;
66264;SDS011;53055;44.648;21.148;2023-04-24T07:38:18;9.98;;;7.32;;
66264;SDS011;53055;44.648;21.148;2023-04-24T07:40:46;9.55;;;6.18;;
66264;SDS011;53055;44.648;21.148;2023-04-24T07:43:12;9.20;;;6.80;;
66264;SDS011;53055;44.648;21.148;2023-04-24T07:45:38;10.25;;;6.60;;
66264;SDS011;53055;44.648;21.148;2023-04-24T07:48:05;10.13;;;6.82;;
66264;SDS011;53055;44.648;21.148;2023-04-24T07:50:31;13.65;;;9.30;;
66264;SDS011;53055;44.648;21.148;2023-04-24T07:52:57;12.18;;;8.02;;
66264;SDS011;53055;44.648;21.148;2023-04-24T07:55:23;11.10;;;6.88;;
66264;SDS011;53055;44.648;21.148;2023-04-24T07:57:49;10.57;;;6.90;;
66264;SDS011;53055;44.648;21.148;2023-04-24T08:00:15;10.27;;;7.47;;
66264;SDS011;53055;44.648;21.148;2023-04-24T08:02:41;11.40;;;8.60;;
66264;SDS011;53055;44.648;21.148;2023-04-24T08:05:07;10.85;;;7.40;;
66264;SDS011;53055;44.648;21.148;2023-04-24T08:07:33;10.85;;;7.72;;
66264;SDS011;53055;44.648;21.148;2023-04-24T08:10:00;11.30;;;7.53;;
66264;SDS011;53055;44.648;21.148;2023-04-24T08:12:28;10.63;;;7.50;;
66264;SDS011;53055;44.648;21.148;2023-04-24T08:14:54;8.68;;;6.82;;
66264;SDS011;53055;44.648;21.148;2023-04-24T08:17:20;11.70;;;6.80;;
66264;SDS011;53055;44.648;21.148;2023-04-24T08:19:46;10.35;;;7.10;;
66264;SDS011;53055;44.648;21.148;2023-04-24T08:22:16;10.60;;;7.55;;
66264;SDS011;53055;44.648;21.148;2023-04-24T08:24:42;10.98;;;8.27;;
66264;SDS011;53055;44.648;21.148;2023-04-24T08:27:09;10.32;;;7.25;;
66264;SDS011;53055;44.648;21.148;2023-04-24T08:29:35;10.00;;;7.30;;
66264;SDS011;53055;44.648;21.148;2023-04-24T08:32:02;10.07;;;7.13;;
66264;SDS011;53055;44.648;21.148;2023-04-24T08:34:28;10.90;;;5.72;;
66264;SDS011;53055;44.648;21.148;2023-04-24T08:36:54;12.73;;;8.35;;
66264;SDS011;53055;44.648;21.148;2023-04-24T08:39:20;12.63;;;7.90;;
66264;SDS011;53055;44.648;21.148;2023-04-24T08:41:46;11.68;;;7.18;;
66264;SDS011;53055;44.648;21.148;2023-04-24T08:44:13;9.18;;;6.25;;
66264;SDS011;53055;44.648;21.148;2023-04-24T08:46:41;9.45;;;6.57;;
66264;SDS011;53055;44.648;21.148;2023-04-24T08:49:08;9.90;;;7.00;;
66264;SDS011;53055;44.648;21.148;2023-04-24T08:51:34;10.20;;;6.80;;
66264;SDS011;53055;44.648;21.148;2023-04-24T08:54:02;12.50;;;8.20;;
66264;SDS011;53055;44.648;21.148;2023-04-24T08:56:28;11.20;;;7.35;;
66264;SDS011;53055;44.648;21.148;2023-04-24T08:58:56;12.35;;;8.95;;
66264;SDS011;53055;44.648;21.148;2023-04-24T09:01:22;12.13;;;8.55;;
66264;SDS011;53055;44.648;21.148;2023-04-24T09:03:49;10.02;;;6.65;;
66264;SDS011;53055;44.648;21.148;2023-04-24T09:06:16;9.30;;;6.63;;
66264;SDS011;53055;44.648;21.148;2023-04-24T09:08:43;8.40;;;5.70;;
66264;SDS011;53055;44.648;21.148;2023-04-24T09:11:11;10.05;;;6.75;;
66264;SDS011;53055;44.648;21.148;2023-04-24T09:13:37;9.63;;;6.95;;
66264;SDS011;53055;44.648;21.148;2023-04-24T09:16:03;12.13;;;6.82;;
66264;SDS011;53055;44.648;21.148;2023-04-24T09:18:29;11.52;;;8.35;;
66264;SDS011;53055;44.648;21.148;2023-04-24T09:23:29;9.10;;;5.47;;
66264;SDS011;53055;44.648;21.148;2023-04-24T09:25:55;10.95;;;7.20;;
66264;SDS011;53055;44.648;21.148;2023-04-24T09:28:25;10.15;;;6.07;;
66264;SDS011;53055;44.648;21.148;2023-04-24T09:31:05;10.18;;;6.28;;
66264;SDS011;53055;44.648;21.148;2023-04-24T09:33:31;9.15;;;5.63;;
66264;SDS011;53055;44.648;21.148;2023-04-24T09:35:57;10.10;;;6.10;;
66264;SDS011;53055;44.648;21.148;2023-04-24T09:38:30;9.07;;;5.90;;
66264;SDS011;53055;44.648;21.148;2023-04-24T09:40:58;8.70;;;5.87;;
66264;SDS011;53055;44.648;21.148;2023-04-24T09:43:26;8.38;;;5.20;;
66264;SDS011;53055;44.648;21.148;2023-04-24T09:45:55;8.50;;;6.13;;
66264;SDS011;53055;44.648;21.148;2023-04-24T09:48:29;9.65;;;7.07;;
66264;SDS011;53055;44.648;21.148;2023-04-24T09:50:56;8.27;;;5.53;;
66264;SDS011;53055;44.648;21.148;2023-04-24T09:53:25;8.05;;;5.30;;
66264;SDS011;53055;44.648;21.148;2023-04-24T09:55:51;8.55;;;5.20;;
66264;SDS011;53055;44.648;21.148;2023-04-24T09:58:18;9.13;;;5.13;;
66264;SDS011;53055;44.648;21.148;2023-04-24T10:00:44;8.18;;;5.05;;
66264;SDS011;53055;44.648;21.148;2023-04-24T10:03:11;8.05;;;5.00;;
66264;SDS011;53055;44.648;21.148;2023-04-24T10:05:37;8.02;;;4.85;;
66264;SDS011;53055;44.648;21.148;2023-04-24T10:08:07;8.73;;;4.95;;
66264;SDS011;53055;44.648;21.148;2023-04-24T10:10:34;8.25;;;5.15;;
66264;SDS011;53055;44.648;21.148;2023-04-24T10:13:03;7.53;;;5.13;;
66264;SDS011;53055;44.648;21.148;2023-04-24T10:15:29;8.70;;;4.85;;
66264;SDS011;53055;44.648;21.148;2023-04-24T10:17:55;10.10;;;5.53;;
66264;SDS011;53055;44.648;21.148;2023-04-24T10:20:24;10.10;;;6.72;;
66264;SDS011;53055;44.648;21.148;2023-04-24T10:22:51;8.52;;;5.90;;
66264;SDS011;53055;44.648;21.148;2023-04-24T10:25:22;8.85;;;5.00;;
66264;SDS011;53055;44.648;21.148;2023-04-24T10:27:48;9.68;;;5.88;;
66264;SDS011;53055;44.648;21.148;2023-04-24T10:30:15;8.32;;;5.53;;
66264;SDS011;53055;44.648;21.148;2023-04-24T10:32:41;8.93;;;5.80;;
66264;SDS011;53055;44.648;21.148;2023-04-24T10:35:07;8.77;;;6.13;;
66264;SDS011;53055;44.648;21.148;2023-04-24T10:37:35;10.30;;;6.15;;
66264;SDS011;53055;44.648;21.148;2023-04-24T10:40:02;11.02;;;6.30;;
66264;SDS011;53055;44.648;21.148;2023-04-24T10:42:28;9.73;;;5.80;;
66264;SDS011;53055;44.648;21.148;2023-04-24T10:44:54;10.88;;;6.60;;
66264;SDS011;53055;44.648;21.148;2023-04-24T10:47:22;15.93;;;8.02;;
66264;SDS011;53055;44.648;21.148;2023-04-24T10:49:50;11.68;;;6.85;;
66264;SDS011;53055;44.648;21.148;2023-04-24T10:52:16;9.05;;;5.45;;
66264;SDS011;53055;44.648;21.148;2023-04-24T10:59:47;8.85;;;6.63;;
66264;SDS011;53055;44.648;21.148;2023-04-24T11:02:14;7.90;;;5.97;;
66264;SDS011;53055;44.648;21.148;2023-04-24T11:04:40;8.90;;;6.22;;
66264;SDS011;53055;44.648;21.148;2023-04-24T11:07:08;10.73;;;6.72;;
66264;SDS011;53055;44.648;21.148;2023-04-24T11:09:35;10.52;;;7.45;;
66264;SDS011;53055;44.648;21.148;2023-04-24T11:12:05;11.05;;;6.30;;
66264;SDS011;53055;44.648;21.148;2023-04-24T11:17:33;9.45;;;6.20;;
66264;SDS011;53055;44.648;21.148;2023-04-24T11:20:03;11.70;;;6.40;;
66264;SDS011;53055;44.648;21.148;2023-04-24T11:22:32;8.80;;;5.78;;
66264;SDS011;53055;44.648;21.148;2023-04-24T11:25:00;8.88;;;5.50;;
66264;SDS011;53055;44.648;21.148;2023-04-24T11:27:47;10.02;;;6.00;;
66264;SDS011;53055;44.648;21.148;2023-04-24T11:30:17;8.32;;;5.20;;
66264;SDS011;53055;44.648;21.148;2023-04-24T11:32:46;8.02;;;5.47;;
66264;SDS011;53055;44.648;21.148;2023-04-24T11:35:20;10.07;;;5.60;;
66264;SDS011;53055;44.648;21.148;2023-04-24T11:37:49;9.43;;;6.10;;
66264;SDS011;53055;44.648;21.148;2023-04-24T11:40:16;8.43;;;5.57;;
66264;SDS011;53055;44.648;21.148;2023-04-24T11:42:44;7.75;;;4.90;;
66264;SDS011;53055;44.648;21.148;2023-04-24T11:45:14;10.25;;;6.55;;
66264;SDS011;53055;44.648;21.148;2023-04-24T11:47:41;9.00;;;5.55;;
66264;SDS011;53055;44.648;21.148;2023-04-24T11:50:08;8.63;;;6.03;;
66264;SDS011;53055;44.648;21.148;2023-04-24T11:52:38;9.57;;;5.90;;
66264;SDS011;53055;44.648;21.148;2023-04-24T11:55:12;8.27;;;5.90;;
66264;SDS011;53055;44.648;21.148;2023-04-24T11:57:49;7.78;;;5.68;;
66264;SDS011;53055;44.648;21.148;2023-04-24T12:00:16;9.82;;;6.25;;
66264;SDS011;53055;44.648;21.148;2023-04-24T12:02:43;10.52;;;6.47;;
66264;SDS011;53055;44.648;21.148;2023-04-24T12:05:20;11.20;;;8.40;;
66264;SDS011;53055;44.648;21.148;2023-04-24T12:07:47;13.20;;;8.68;;
66264;SDS011;53055;44.648;21.148;2023-04-24T12:10:13;9.70;;;6.80;;
66264;SDS011;53055;44.648;21.148;2023-04-24T12:12:39;10.10;;;6.75;;
66264;SDS011;53055;44.648;21.148;2023-04-24T12:15:06;10.82;;;7.82;;
66264;SDS011;53055;44.648;21.148;2023-04-24T12:17:33;11.25;;;7.40;;
66264;SDS011;53055;44.648;21.148;2023-04-24T12:20:06;8.93;;;6.35;;
66264;SDS011;53055;44.648;21.148;2023-04-24T12:22:51;9.52;;;7.43;;
66264;SDS011;53055;44.648;21.148;2023-04-24T12:25:19;12.65;;;8.75;;
66264;SDS011;53055;44.648;21.148;2023-04-24T12:27:46;12.45;;;8.50;;
66264;SDS011;53055;44.648;21.148;2023-04-24T12:30:13;12.48;;;8.48;;
66264;SDS011;53055;44.648;21.148;2023-04-24T12:32:43;11.82;;;8.95;;
66264;SDS011;53055;44.648;21.148;2023-04-24T12:35:09;13.13;;;9.05;;
66264;SDS011;53055;44.648;21.148;2023-04-24T12:37:35;12.93;;;10.20;;
66264;SDS011;53055;44.648;21.148;2023-04-24T12:40:06;9.88;;;6.95;;
66264;SDS011;53055;44.648;21.148;2023-04-24T12:42:32;13.00;;;9.63;;
66264;SDS011;53055;44.648;21.148;2023-04-24T12:45:00;12.15;;;7.07;;
66264;SDS011;53055;44.648;21.148;2023-04-24T12:47:27;9.68;;;6.82;;
66264;SDS011;53055;44.648;21.148;2023-04-24T12:49:53;11.15;;;7.60;;
66264;SDS011;53055;44.648;21.148;2023-04-24T12:52:20;10.13;;;7.00;;
66264;SDS011;53055;44.648;21.148;2023-04-24T12:54:46;11.82;;;8.55;;
66264;SDS011;53055;44.648;21.148;2023-04-24T12:57:12;10.80;;;6.63;;
66264;SDS011;53055;44.648;21.148;2023-04-24T12:59:38;13.02;;;6.65;;
66264;SDS011;53055;44.648;21.148;2023-04-24T13:02:05;11.23;;;7.60;;
66264;SDS011;53055;44.648;21.148;2023-04-24T13:04:32;10.32;;;7.50;;
66264;SDS011;53055;44.648;21.148;2023-04-24T13:06:58;12.00;;;7.32;;
66264;SDS011;53055;44.648;21.148;2023-04-24T13:09:24;10.93;;;7.93;;
66264;SDS011;53055;44.648;21.148;2023-04-24T13:11:50;10.65;;;8.00;;
66264;SDS011;53055;44.648;21.148;2023-04-24T13:14:16;13.98;;;8.10;;
66264;SDS011;53055;44.648;21.148;2023-04-24T13:16:42;13.27;;;10.10;;
66264;SDS011;53055;44.648;21.148;2023-04-24T13:19:08;13.05;;;9.25;;
66264;SDS011;53055;44.648;21.148;2023-04-24T13:21:34;13.13;;;8.85;;
66264;SDS011;53055;44.648;21.148;2023-04-24T13:24:00;10.55;;;6.75;;
66264;SDS011;53055;44.648;21.148;2023-04-24T13:26:26;11.90;;;7.32;;
66264;SDS011;53055;44.648;21.148;2023-04-24T13:28:52;10.68;;;7.60;;
66264;SDS011;53055;44.648;21.148;2023-04-24T13:31:18;12.05;;;7.55;;
66264;SDS011;53055;44.648;21.148;2023-04-24T13:33:44;11.98;;;7.75;;
66264;SDS011;53055;44.648;21.148;2023-04-24T13:36:10;14.75;;;10.88;;
66264;SDS011;53055;44.648;21.148;2023-04-24T13:38:36;14.90;;;10.00;;
66264;SDS011;53055;44.648;21.148;2023-04-24T13:41:02;14.43;;;11.02;;
66264;SDS011;53055;44.648;21.148;2023-04-24T13:43:28;17.98;;;13.32;;
66264;SDS011;53055;44.648;21.148;2023-04-24T13:45:54;15.95;;;13.25;;
66264;SDS011;53055;44.648;21.148;2023-04-24T13:48:20;16.65;;;11.25;;
66264;SDS011;53055;44.648;21.148;2023-04-24T13:50:46;17.65;;;12.63;;
66264;SDS011;53055;44.648;21.148;2023-04-24T13:53:14;17.50;;;13.15;;
66264;SDS011;53055;44.648;21.148;2023-04-24T13:55:40;15.35;;;12.23;;
66264;SDS011;53055;44.648;21.148;2023-04-24T13:58:06;17.25;;;14.75;;
66264;SDS011;53055;44.648;21.148;2023-04-24T14:00:32;20.17;;;14.63;;
66264;SDS011;53055;44.648;21.148;2023-04-24T14:02:58;19.10;;;14.00;;
66264;SDS011;53055;44.648;21.148;2023-04-24T14:05:25;16.30;;;11.40;;
66264;SDS011;53055;44.648;21.148;2023-04-24T14:07:51;12.50;;;8.68;;
66264;SDS011;53055;44.648;21.148;2023-04-24T14:10:17;13.52;;;9.05;;
66264;SDS011;53055;44.648;21.148;2023-04-24T14:12:43;14.35;;;10.88;;
66264;SDS011;53055;44.648;21.148;2023-04-24T14:15:10;14.48;;;9.27;;
66264;SDS011;53055;44.648;21.148;2023-04-24T14:17:38;10.40;;;7.95;;
66264;SDS011;53055;44.648;21.148;2023-04-24T14:20:04;12.32;;;8.02;;
66264;SDS011;53055;44.648;21.148;2023-04-24T14:22:30;10.73;;;7.00;;
66264;SDS011;53055;44.648;21.148;2023-04-24T14:24:56;11.10;;;7.88;;
66264;SDS011;53055;44.648;21.148;2023-04-24T14:27:22;8.02;;;5.93;;
66264;SDS011;53055;44.648;21.148;2023-04-24T14:29:48;10.52;;;6.05;;
66264;SDS011;53055;44.648;21.148;2023-04-24T14:32:14;10.30;;;6.85;;
66264;SDS011;53055;44.648;21.148;2023-04-24T14:34:40;9.88;;;6.38;;
66264;SDS011;53055;44.648;21.148;2023-04-24T14:37:07;11.45;;;8.70;;